Thunder radar more information blitzortung!


Löydät sääaseman tiedot myös:

European Weather Network

Finland Weather Exchange

Weather Underground

AWEKAS



Weather Underground säähistoriasivu

Päivittäin yhteenveto Elokuu 4, 2017 Yksiköt:  Englantilaiset    Metriset   Molemmat
« Edellinen Päivä
Seuraava Päivä »
Päivittäin Viikoittain Kuukausittain Vuosittain Mukautettu
  Korkea: Matala: Keskiarvo:
Lämpötila: TemperatureC °F 7.6 °F 13.9 °F
Kastepiste: DewpointC °F 7.0 °F 12.1 °F
Kosteus: Humidity % 72 % 89 %
Tuulen nopeus: WindSpeedKMH mph 0.0 mph 0.2 mph
Tuulenpuuska: WindSpeedGustKMH mph - -
Tuuli:- - SE
Ilmanpaine: PressurehPa in 993.8 in -
Sade: 3.3 in    
Historical Graphs
 
 
Taulukkotiedot Elokuu 4, 2017
Aika Lämpötila Kastepiste Ilmanpaine Tuuli Tuulen nopeus Tuulenpuuska Kosteus Sademäärä (tunneittain)
TemperatureC °F DewpointC °F PressurehPa in Calm     Humidity % HourlyPrecipMM in
00:00 12.7 °F 11.5 °F 1005.0 in Calm     92 % 0.0 in
00:15 12.3 °F 11.1 °F 1005.0 in Calm     92 % 0.0 in
00:30 11.9 °F 10.6 °F 1005.0 in Calm     92 % 0.0 in
00:45 11.6 °F 10.5 °F 1004.6 in Calm     93 % 0.0 in
01:00 11.2 °F 10.3 °F 1005.0 in Calm     94 % 0.0 in
01:15 10.8 °F 9.7 °F 1004.6 in Calm     93 % 0.0 in
01:30 10.5 °F 9.6 °F 1004.6 in Calm     94 % 0.0 in
01:45 10.3 °F 9.4 °F 1004.3 in Calm     94 % 0.0 in
02:00 10.0 °F 9.1 °F 1003.9 in Calm     94 % 0.0 in
02:15 9.7 °F 9.0 °F 1003.9 in Calm     95 % 0.0 in
02:30 9.7 °F 8.9 °F 1003.9 in Calm     95 % 0.0 in
02:45 9.3 °F 8.6 °F 1003.9 in Calm     95 % 0.0 in
03:00 9.2 °F 8.4 °F 1003.9 in Calm     95 % 0.0 in
03:15 9.1 °F 8.5 °F 1003.6 in Calm     96 % 0.0 in
03:30 8.9 °F 8.1 °F 1003.6 in Calm     95 % 0.0 in
03:45 8.8 °F 8.2 °F 1003.3 in Calm     96 % 0.0 in
04:00 8.6 °F 8.0 °F 1003.3 in Calm     96 % 0.0 in
04:30 8.2 °F 7.6 °F 1002.9 in Calm     96 % 0.0 in
04:45 8.1 °F 7.5 °F 1002.6 in Calm     96 % 0.0 in
05:00 7.9 °F 7.3 °F 1002.6 in Calm     96 % 0.0 in
05:15 7.7 °F 7.1 °F 1002.3 in Calm     96 % 0.0 in
05:30 7.7 °F 7.1 °F 1002.3 in Calm     96 % 0.0 in
05:45 7.6 °F 7.0 °F 1001.9 in Calm     96 % 0.0 in
06:00 7.6 °F 7.1 °F 1001.9 in Calm     97 % 0.0 in
06:30 8.1 °F 7.6 °F 1001.6 in Calm     97 % 0.0 in
06:45 8.4 °F 8.0 °F 1001.6 in Calm     97 % 0.0 in
07:00 8.9 °F 8.4 °F 1001.6 in Calm     97 % 0.0 in
07:30 9.6 °F 9.3 °F 1001.2 in Calm     98 % 0.0 in
07:45 9.8 °F 9.5 °F 1000.9 in Calm     98 % 0.0 in
08:00 10.2 °F 9.9 °F 1000.9 in Calm     98 % 0.0 in
08:15 10.5 °F 10.2 °F 1000.6 in Calm     98 % 0.0 in
08:30 10.9 °F 10.6 °F 1000.6 in Calm     98 % 0.0 in
08:45 11.4 °F 11.1 °F 1000.2 in Calm     98 % 0.0 in
09:00 11.9 °F 11.6 °F 1000.2 in Calm     98 % 0.0 in
09:15 12.6 °F 12.2 °F 999.9 in Calm     98 % 0.0 in
09:30 13.3 °F 13.0 °F 999.9 in Calm     98 % 0.0 in
09:45 13.8 °F 13.5 °F 999.5 in Calm     98 % 0.0 in
10:00 14.5 °F 14.1 °F 999.5 in Calm     98 % 0.0 in
10:15 15.1 °F 14.6 °F 999.2 in Calm     97 % 0.0 in
10:30 15.6 °F 15.0 °F 999.2 in Calm   1.6 mph 96 % 0.0 in
10:45 16.1 °F 14.8 °F 998.9 in Calm   1.6 mph 92 % 0.0 in
11:00 16.5 °F 14.7 °F 998.5 in Calm   6.4 mph 89 % 0.0 in
11:15 16.9 °F 15.1 °F 998.5 in Calm   3.2 mph 89 % 0.0 in
11:30 17.3 °F 15.0 °F 998.2 in Calm   6.4 mph 86 % 0.0 in
11:45 17.9 °F 15.1 °F 998.2 in Calm   6.4 mph 84 % 0.0 in
12:00 18.6 °F 15.4 °F 997.9 in Calm   6.4 mph 82 % 0.0 in
12:15 19.2 °F 15.4 °F 997.5 in Calm   6.4 mph 79 % 0.0 in
12:30 19.8 °F 15.0 °F 997.5 in Calm   3.2 mph 74 % 0.0 in
12:45 19.3 °F 15.0 °F 997.2 in Calm   6.4 mph 76 % 0.0 in
13:00 19.3 °F 14.7 °F 997.2 in Calm   3.2 mph 75 % 0.0 in
13:15 19.1 °F 15.3 °F 997.2 in Calm   3.2 mph 79 % 0.0 in
13:30 19.1 °F 14.7 °F 996.8 in Calm   6.4 mph 76 % 0.0 in
13:45 19.1 °F 14.8 °F 996.8 in Calm   6.4 mph 76 % 0.0 in
14:00 19.2 °F 15.0 °F 996.8 in Calm   8.0 mph 77 % 0.0 in
14:15 19.3 °F 15.1 °F 996.5 in Calm   6.4 mph 77 % 0.0 in
14:30 19.3 °F 15.0 °F 996.5 in Calm   4.8 mph 76 % 0.0 in
14:45 19.5 °F 15.6 °F 996.2 in Calm   6.4 mph 78 % 0.0 in
15:00 19.6 °F 14.6 °F 996.2 in Calm   6.4 mph 73 % 0.0 in
15:15 19.7 °F 15.1 °F 996.2 in Calm   11.3 mph 75 % 0.0 in
15:30 19.6 °F 14.6 °F 995.8 in NNE 1.6 mph 9.7 mph 73 % 0.0 in
15:45 19.6 °F 14.6 °F 995.5 in Calm   4.8 mph 73 % 0.0 in
16:00 19.5 °F 14.7 °F 995.5 in Calm   9.7 mph 74 % 0.0 in
16:15 19.2 °F 14.0 °F 995.5 in Calm   6.4 mph 72 % 0.0 in
16:30 18.9 °F 14.6 °F 995.1 in Calm   3.2 mph 76 % 0.0 in
16:45 18.9 °F 14.4 °F 995.1 in SE 1.6 mph 11.3 mph 75 % 0.0 in
17:00 18.7 °F 14.3 °F 995.1 in South 3.2 mph 12.9 mph 76 % 0.0 in
17:15 18.3 °F 14.6 °F 995.1 in Calm   1.6 mph 79 % 0.0 in
17:30 18.1 °F 15.0 °F 995.1 in Calm     82 % 0.0 in
17:45 17.7 °F 14.9 °F 995.1 in ESE 1.6 mph 8.0 mph 84 % 0.0 in
18:00 17.4 °F 14.8 °F 995.1 in South 1.6 mph 9.7 mph 85 % 0.0 in
18:15 17.0 °F 14.3 °F 995.1 in SE 1.6 mph 12.9 mph 84 % 0.0 in
18:30 16.6 °F 13.9 °F 995.1 in ESE 1.6 mph 9.7 mph 84 % 0.0 in
18:45 16.3 °F 13.8 °F 995.1 in SE 1.6 mph 8.0 mph 85 % 0.0 in
19:00 16.1 °F 13.9 °F 995.1 in Calm   6.4 mph 87 % 0.0 in
19:15 15.9 °F 13.9 °F 994.8 in Calm   3.2 mph 88 % 0.0 in
19:30 15.7 °F 13.9 °F 994.8 in Calm   4.8 mph 89 % 0.3 in
19:45 15.3 °F 13.9 °F 994.8 in Calm   3.2 mph 91 % 0.5 in
20:00 14.9 °F 13.7 °F 994.8 in Calm   3.2 mph 92 % 0.5 in
20:15 14.6 °F 13.5 °F 994.8 in Calm   4.8 mph 93 % 0.8 in
20:30 14.4 °F 13.4 °F 994.8 in Calm     94 % 0.8 in
20:45 14.2 °F 13.2 °F 994.5 in Calm     94 % 0.8 in
21:00 14.1 °F 13.3 °F 994.5 in Calm     95 % 1.0 in
21:30 13.8 °F 13.0 °F 994.1 in Calm     95 % 0.8 in
22:00 13.6 °F 13.0 °F 994.1 in Calm     96 % 0.8 in
22:15 13.6 °F 12.9 °F 994.1 in Calm     96 % 0.8 in
22:30 13.6 °F 12.9 °F 994.1 in Calm     96 % 0.5 in
22:45 13.6 °F 13.0 °F 994.1 in Calm   1.6 mph 96 % 0.5 in
23:00 13.6 °F 13.0 °F 994.1 in Calm     96 % 0.5 in
23:15 13.6 °F 13.0 °F 993.8 in Calm     96 % 0.5 in
23:30 13.6 °F 13.1 °F 993.8 in Calm     97 % 0.5 in
23:45 13.7 °F 13.2 °F 993.8 in Calm     97 % 0.8 in
Esan sääasema
Terveisin Weather Underground - 2.75 mb

Alkuperäinen skripti  Jim McMurry - jmcmurry@mwt.net Sovitettu myös templatelle  Wim van der Kuil - Leuven-Template.eu

Laitteet joita käytämme:

Sääasema
Davis VP2

Sääasemaohjelma
Cumulus

Sääaseman tietokone
Asus EeePC

Palveluntarjoaja
Suncomet

Davis VP2

Cumulus

Asus EeePC

Suncomet